sensor_id;sensor_type;location;lat;lon;timestamp;pressure;altitude;pressure_sealevel;temperature
20867;BMP280;10593;48.398;10.698;2023-06-10T00:01:55;95779.31;;;27.47
20867;BMP280;10593;48.398;10.698;2023-06-10T00:04:23;95775.00;;;27.46
20867;BMP280;10593;48.398;10.698;2023-06-10T00:06:49;95778.75;;;27.43
20867;BMP280;10593;48.398;10.698;2023-06-10T00:09:15;95771.94;;;27.41
20867;BMP280;10593;48.398;10.698;2023-06-10T00:11:42;95776.38;;;27.40
20867;BMP280;10593;48.398;10.698;2023-06-10T00:14:08;95774.03;;;27.37
20867;BMP280;10593;48.398;10.698;2023-06-10T00:16:34;95774.16;;;27.36
20867;BMP280;10593;48.398;10.698;2023-06-10T00:19:04;95776.94;;;27.34
20867;BMP280;10593;48.398;10.698;2023-06-10T00:21:32;95774.44;;;27.33
20867;BMP280;10593;48.398;10.698;2023-06-10T00:24:08;95780.00;;;27.30
20867;BMP280;10593;48.398;10.698;2023-06-10T00:26:40;95781.94;;;27.28
20867;BMP280;10593;48.398;10.698;2023-06-10T00:29:06;95780.44;;;27.25
20867;BMP280;10593;48.398;10.698;2023-06-10T00:31:35;95778.88;;;27.23
20867;BMP280;10593;48.398;10.698;2023-06-10T00:34:01;95776.38;;;27.21
20867;BMP280;10593;48.398;10.698;2023-06-10T00:36:28;95782.78;;;27.19
20867;BMP280;10593;48.398;10.698;2023-06-10T00:38:54;95774.19;;;27.17
20867;BMP280;10593;48.398;10.698;2023-06-10T00:41:19;95782.91;;;27.17
20867;BMP280;10593;48.398;10.698;2023-06-10T00:43:45;95775.28;;;27.14
20867;BMP280;10593;48.398;10.698;2023-06-10T00:46:12;95778.03;;;27.13
20867;BMP280;10593;48.398;10.698;2023-06-10T00:48:40;95774.97;;;27.08
20867;BMP280;10593;48.398;10.698;2023-06-10T00:51:06;95777.72;;;27.06
20867;BMP280;10593;48.398;10.698;2023-06-10T00:53:39;95782.31;;;27.04
20867;BMP280;10593;48.398;10.698;2023-06-10T00:56:04;95770.22;;;27.02
20867;BMP280;10593;48.398;10.698;2023-06-10T00:58:31;95773.84;;;27.01
20867;BMP280;10593;48.398;10.698;2023-06-10T01:00:56;95778.41;;;26.99
20867;BMP280;10593;48.398;10.698;2023-06-10T01:03:23;95780.38;;;26.97
20867;BMP280;10593;48.398;10.698;2023-06-10T01:08:41;95781.63;;;26.93
20867;BMP280;10593;48.398;10.698;2023-06-10T01:11:23;95776.63;;;26.90
20867;BMP280;10593;48.398;10.698;2023-06-10T01:13:51;95771.59;;;26.87
20867;BMP280;10593;48.398;10.698;2023-06-10T01:16:19;95781.34;;;26.86
20867;BMP280;10593;48.398;10.698;2023-06-10T01:18:45;95778.97;;;26.83
20867;BMP280;10593;48.398;10.698;2023-06-10T01:21:22;95790.34;;;26.84
20867;BMP280;10593;48.398;10.698;2023-06-10T01:23:54;95788.78;;;26.81
20867;BMP280;10593;48.398;10.698;2023-06-10T01:26:32;95781.16;;;26.78
20867;BMP280;10593;48.398;10.698;2023-06-10T01:29:19;95783.22;;;26.75
20867;BMP280;10593;48.398;10.698;2023-06-10T01:32:08;95780.75;;;26.73
20867;BMP280;10593;48.398;10.698;2023-06-10T01:34:39;95776.56;;;26.71
20867;BMP280;10593;48.398;10.698;2023-06-10T01:37:09;95784.63;;;26.69
20867;BMP280;10593;48.398;10.698;2023-06-10T01:39:37;95787.41;;;26.68
20867;BMP280;10593;48.398;10.698;2023-06-10T01:42:04;95786.72;;;26.66
20867;BMP280;10593;48.398;10.698;2023-06-10T01:44:30;95790.31;;;26.65
20867;BMP280;10593;48.398;10.698;2023-06-10T01:46:55;95787.78;;;26.63
20867;BMP280;10593;48.398;10.698;2023-06-10T01:49:21;95790.59;;;26.62
20867;BMP280;10593;48.398;10.698;2023-06-10T01:51:49;95788.88;;;26.61
20867;BMP280;10593;48.398;10.698;2023-06-10T01:54:15;95795.28;;;26.58
20867;BMP280;10593;48.398;10.698;2023-06-10T01:56:40;95797.06;;;26.58
20867;BMP280;10593;48.398;10.698;2023-06-10T01:59:06;95798.19;;;26.55
20867;BMP280;10593;48.398;10.698;2023-06-10T02:01:33;95793.06;;;26.54
20867;BMP280;10593;48.398;10.698;2023-06-10T02:03:59;95800.25;;;26.52
20867;BMP280;10593;48.398;10.698;2023-06-10T02:06:24;95795.13;;;26.50
20867;BMP280;10593;48.398;10.698;2023-06-10T02:08:50;95797.91;;;26.49
20867;BMP280;10593;48.398;10.698;2023-06-10T02:11:16;95794.50;;;26.47
20867;BMP280;10593;48.398;10.698;2023-06-10T02:13:42;95799.94;;;26.45
20867;BMP280;10593;48.398;10.698;2023-06-10T02:16:07;95798.28;;;26.44
20867;BMP280;10593;48.398;10.698;2023-06-10T02:18:33;95802.84;;;26.42
20867;BMP280;10593;48.398;10.698;2023-06-10T02:20:59;95797.69;;;26.41
20867;BMP280;10593;48.398;10.698;2023-06-10T02:23:25;95802.25;;;26.39
20867;BMP280;10593;48.398;10.698;2023-06-10T02:25:50;95796.31;;;26.37
20867;BMP280;10593;48.398;10.698;2023-06-10T02:28:16;95800.88;;;26.35
20867;BMP280;10593;48.398;10.698;2023-06-10T02:30:42;95808.91;;;26.33
20867;BMP280;10593;48.398;10.698;2023-06-10T02:33:08;95807.22;;;26.32
20867;BMP280;10593;48.398;10.698;2023-06-10T02:35:38;95812.63;;;26.31
20867;BMP280;10593;48.398;10.698;2023-06-10T02:38:04;95800.56;;;26.28
20867;BMP280;10593;48.398;10.698;2023-06-10T02:40:30;95813.00;;;26.26
20867;BMP280;10593;48.398;10.698;2023-06-10T02:42:57;95814.94;;;26.24
20867;BMP280;10593;48.398;10.698;2023-06-10T02:45:23;95813.28;;;26.23
20867;BMP280;10593;48.398;10.698;2023-06-10T02:47:49;95819.66;;;26.21
20867;BMP280;10593;48.398;10.698;2023-06-10T02:50:15;95813.69;;;26.19
20867;BMP280;10593;48.398;10.698;2023-06-10T02:52:41;95822.69;;;26.16
20867;BMP280;10593;48.398;10.698;2023-06-10T02:55:07;95826.41;;;26.14
20867;BMP280;10593;48.398;10.698;2023-06-10T02:57:32;95823.09;;;26.12
20867;BMP280;10593;48.398;10.698;2023-06-10T02:59:58;95824.06;;;26.11
20867;BMP280;10593;48.398;10.698;2023-06-10T03:02:24;95825.03;;;26.10
20867;BMP280;10593;48.398;10.698;2023-06-10T03:04:55;95816.41;;;26.08
20867;BMP280;10593;48.398;10.698;2023-06-10T03:07:21;95820.97;;;26.06
20867;BMP280;10593;48.398;10.698;2023-06-10T03:09:47;95825.41;;;26.05
20867;BMP280;10593;48.398;10.698;2023-06-10T03:12:12;95823.84;;;26.03
20867;BMP280;10593;48.398;10.698;2023-06-10T03:14:38;95818.75;;;26.01
20867;BMP280;10593;48.398;10.698;2023-06-10T03:17:05;95819.81;;;25.99
20867;BMP280;10593;48.398;10.698;2023-06-10T03:19:30;95830.47;;;25.97
20867;BMP280;10593;48.398;10.698;2023-06-10T03:22:11;95834.22;;;25.95
20867;BMP280;10593;48.398;10.698;2023-06-10T03:24:37;95830.03;;;25.92
20867;BMP280;10593;48.398;10.698;2023-06-10T03:27:11;95831.00;;;25.92
20867;BMP280;10593;48.398;10.698;2023-06-10T03:29:39;95832.09;;;25.89
20867;BMP280;10593;48.398;10.698;2023-06-10T03:32:05;95836.66;;;25.87
20867;BMP280;10593;48.398;10.698;2023-06-10T03:34:31;95841.22;;;25.85
20867;BMP280;10593;48.398;10.698;2023-06-10T03:36:57;95841.31;;;25.83
20867;BMP280;10593;48.398;10.698;2023-06-10T03:39:23;95840.72;;;25.80
20867;BMP280;10593;48.398;10.698;2023-06-10T03:41:52;95845.19;;;25.80
20867;BMP280;10593;48.398;10.698;2023-06-10T03:44:17;95848.06;;;25.77
20867;BMP280;10593;48.398;10.698;2023-06-10T03:46:43;95848.19;;;25.75
20867;BMP280;10593;48.398;10.698;2023-06-10T03:49:09;95849.16;;;25.74
20867;BMP280;10593;48.398;10.698;2023-06-10T03:51:36;95851.09;;;25.72
20867;BMP280;10593;48.398;10.698;2023-06-10T03:54:02;95847.75;;;25.70
20867;BMP280;10593;48.398;10.698;2023-06-10T03:56:28;95852.16;;;25.70
20867;BMP280;10593;48.398;10.698;2023-06-10T03:58:54;95854.94;;;25.68
20867;BMP280;10593;48.398;10.698;2023-06-10T04:01:21;95855.06;;;25.67
20867;BMP280;10593;48.398;10.698;2023-06-10T04:03:47;95851.72;;;25.65
20867;BMP280;10593;48.398;10.698;2023-06-10T04:06:15;95856.13;;;25.64
20867;BMP280;10593;48.398;10.698;2023-06-10T04:08:41;95859.72;;;25.63
20867;BMP280;10593;48.398;10.698;2023-06-10T04:11:07;95861.66;;;25.61
20867;BMP280;10593;48.398;10.698;2023-06-10T04:13:32;95865.25;;;25.60
20867;BMP280;10593;48.398;10.698;2023-06-10T04:15:58;95860.81;;;25.61
20867;BMP280;10593;48.398;10.698;2023-06-10T04:18:23;95868.72;;;25.61
20867;BMP280;10593;48.398;10.698;2023-06-10T04:20:49;95867.88;;;25.60
20867;BMP280;10593;48.398;10.698;2023-06-10T04:23:15;95867.88;;;25.60
20867;BMP280;10593;48.398;10.698;2023-06-10T04:25:40;95869.56;;;25.61
20867;BMP280;10593;48.398;10.698;2023-06-10T04:28:06;95865.25;;;25.60
20867;BMP280;10593;48.398;10.698;2023-06-10T04:30:31;95873.84;;;25.62
20867;BMP280;10593;48.398;10.698;2023-06-10T04:32:57;95870.25;;;25.63
20867;BMP280;10593;48.398;10.698;2023-06-10T04:35:23;95879.00;;;25.64
20867;BMP280;10593;48.398;10.698;2023-06-10T04:37:50;95876.22;;;25.65
20867;BMP280;10593;48.398;10.698;2023-06-10T04:40:15;95876.13;;;25.67
20867;BMP280;10593;48.398;10.698;2023-06-10T04:42:41;95880.53;;;25.66
20867;BMP280;10593;48.398;10.698;2023-06-10T04:45:08;95878.63;;;25.68
20867;BMP280;10593;48.398;10.698;2023-06-10T04:47:34;95882.09;;;25.69
20867;BMP280;10593;48.398;10.698;2023-06-10T04:50:01;95879.34;;;25.70
20867;BMP280;10593;48.398;10.698;2023-06-10T04:52:27;95883.63;;;25.71
20867;BMP280;10593;48.398;10.698;2023-06-10T04:54:53;95882.66;;;25.72
20867;BMP280;10593;48.398;10.698;2023-06-10T04:57:20;95885.31;;;25.72
20867;BMP280;10593;48.398;10.698;2023-06-10T04:59:47;95883.50;;;25.73
20867;BMP280;10593;48.398;10.698;2023-06-10T05:02:12;95886.13;;;25.73
20867;BMP280;10593;48.398;10.698;2023-06-10T05:04:39;95893.91;;;25.74
20867;BMP280;10593;48.398;10.698;2023-06-10T05:07:05;95887.69;;;25.75
20867;BMP280;10593;48.398;10.698;2023-06-10T05:09:30;95893.66;;;25.77
20867;BMP280;10593;48.398;10.698;2023-06-10T05:11:56;95885.75;;;25.77
20867;BMP280;10593;48.398;10.698;2023-06-10T05:14:22;95886.59;;;25.78
20867;BMP280;10593;48.398;10.698;2023-06-10T05:16:48;95897.84;;;25.80
20867;BMP280;10593;48.398;10.698;2023-06-10T05:19:14;95892.44;;;25.81
20867;BMP280;10593;48.398;10.698;2023-06-10T05:21:41;95888.84;;;25.82
20867;BMP280;10593;48.398;10.698;2023-06-10T05:24:08;95886.94;;;25.84
20867;BMP280;10593;48.398;10.698;2023-06-10T05:26:34;95891.97;;;25.87
20867;BMP280;10593;48.398;10.698;2023-06-10T05:29:03;95892.66;;;25.89
20867;BMP280;10593;48.398;10.698;2023-06-10T05:31:29;95889.06;;;25.90
20867;BMP280;10593;48.398;10.698;2023-06-10T05:33:55;95892.41;;;25.92
20867;BMP280;10593;48.398;10.698;2023-06-10T05:36:21;95899.47;;;25.92
20867;BMP280;10593;48.398;10.698;2023-06-10T05:38:47;95896.00;;;25.91
20867;BMP280;10593;48.398;10.698;2023-06-10T05:41:12;95907.97;;;25.95
20867;BMP280;10593;48.398;10.698;2023-06-10T05:43:38;95910.34;;;25.98
20867;BMP280;10593;48.398;10.698;2023-06-10T05:46:04;95907.44;;;26.01
20867;BMP280;10593;48.398;10.698;2023-06-10T05:48:29;95907.19;;;26.04
20867;BMP280;10593;48.398;10.698;2023-06-10T05:50:55;95904.28;;;26.07
20867;BMP280;10593;48.398;10.698;2023-06-10T05:53:21;95907.50;;;26.10
20867;BMP280;10593;48.398;10.698;2023-06-10T05:55:46;95903.78;;;26.13
20867;BMP280;10593;48.398;10.698;2023-06-10T05:58:13;95902.69;;;26.15
20867;BMP280;10593;48.398;10.698;2023-06-10T06:00:40;95905.88;;;26.19
20867;BMP280;10593;48.398;10.698;2023-06-10T06:03:09;95897.75;;;26.22
20867;BMP280;10593;48.398;10.698;2023-06-10T06:05:36;95901.91;;;26.24
20867;BMP280;10593;48.398;10.698;2023-06-10T06:08:08;95904.16;;;26.29
20867;BMP280;10593;48.398;10.698;2023-06-10T06:10:34;95892.66;;;26.30
20867;BMP280;10593;48.398;10.698;2023-06-10T06:13:00;95899.31;;;26.34
20867;BMP280;10593;48.398;10.698;2023-06-10T06:15:26;95898.38;;;26.35
20867;BMP280;10593;48.398;10.698;2023-06-10T06:17:52;95905.88;;;26.39
20867;BMP280;10593;48.398;10.698;2023-06-10T06:20:20;95903.22;;;26.39
20867;BMP280;10593;48.398;10.698;2023-06-10T06:22:45;95900.22;;;26.44
20867;BMP280;10593;48.398;10.698;2023-06-10T06:25:11;95895.44;;;26.49
20867;BMP280;10593;48.398;10.698;2023-06-10T06:27:37;95902.91;;;26.53
20867;BMP280;10593;48.398;10.698;2023-06-10T06:30:03;95905.16;;;26.58
20867;BMP280;10593;48.398;10.698;2023-06-10T06:32:29;95903.97;;;26.62
20867;BMP280;10593;48.398;10.698;2023-06-10T06:34:55;95905.34;;;26.66
20867;BMP280;10593;48.398;10.698;2023-06-10T06:37:23;95902.31;;;26.70
20867;BMP280;10593;48.398;10.698;2023-06-10T06:39:53;95902.06;;;26.73
20867;BMP280;10593;48.398;10.698;2023-06-10T06:42:20;95900.97;;;26.76
20867;BMP280;10593;48.398;10.698;2023-06-10T06:44:47;95903.06;;;26.82
20867;BMP280;10593;48.398;10.698;2023-06-10T06:47:13;95915.00;;;26.86
20867;BMP280;10593;48.398;10.698;2023-06-10T06:49:39;95912.94;;;26.89
20867;BMP280;10593;48.398;10.698;2023-06-10T06:52:05;95921.41;;;26.93
20867;BMP280;10593;48.398;10.698;2023-06-10T06:54:31;95920.44;;;26.94
20867;BMP280;10593;48.398;10.698;2023-06-10T06:56:57;95923.38;;;26.91
20867;BMP280;10593;48.398;10.698;2023-06-10T06:59:22;95912.66;;;26.92
20867;BMP280;10593;48.398;10.698;2023-06-10T07:01:49;95922.25;;;26.93
20867;BMP280;10593;48.398;10.698;2023-06-10T07:04:15;95925.44;;;26.97
20867;BMP280;10593;48.398;10.698;2023-06-10T07:06:41;95922.53;;;27.00
20867;BMP280;10593;48.398;10.698;2023-06-10T07:09:07;95924.09;;;27.02
20867;BMP280;10593;48.398;10.698;2023-06-10T07:11:34;95921.16;;;27.05
20867;BMP280;10593;48.398;10.698;2023-06-10T07:14:00;95927.03;;;27.09
20867;BMP280;10593;48.398;10.698;2023-06-10T07:16:26;95924.13;;;27.12
20867;BMP280;10593;48.398;10.698;2023-06-10T07:18:53;95927.47;;;27.14
20867;BMP280;10593;48.398;10.698;2023-06-10T07:21:19;95923.88;;;27.15
20867;BMP280;10593;48.398;10.698;2023-06-10T07:23:44;95925.41;;;27.17
20867;BMP280;10593;48.398;10.698;2023-06-10T07:26:11;95930.28;;;27.22
20867;BMP280;10593;48.398;10.698;2023-06-10T07:28:41;95927.53;;;27.23
20867;BMP280;10593;48.398;10.698;2023-06-10T07:31:08;95923.06;;;27.24
20867;BMP280;10593;48.398;10.698;2023-06-10T07:33:34;95922.25;;;27.23
20867;BMP280;10593;48.398;10.698;2023-06-10T07:36:00;95923.06;;;27.24
20867;BMP280;10593;48.398;10.698;2023-06-10T07:38:26;95920.59;;;27.22
20867;BMP280;10593;48.398;10.698;2023-06-10T07:40:52;95917.78;;;27.24
20867;BMP280;10593;48.398;10.698;2023-06-10T07:43:18;95920.16;;;27.27
20867;BMP280;10593;48.398;10.698;2023-06-10T07:45:45;95912.69;;;27.32
20867;BMP280;10593;48.398;10.698;2023-06-10T07:48:11;95914.34;;;27.33
20867;BMP280;10593;48.398;10.698;2023-06-10T07:50:36;95923.22;;;27.32
20867;BMP280;10593;48.398;10.698;2023-06-10T07:53:02;95913.38;;;27.34
20867;BMP280;10593;48.398;10.698;2023-06-10T07:55:28;95914.34;;;27.33
20867;BMP280;10593;48.398;10.698;2023-06-10T07:57:54;95919.34;;;27.36
20867;BMP280;10593;48.398;10.698;2023-06-10T08:00:20;95914.75;;;27.38
20867;BMP280;10593;48.398;10.698;2023-06-10T08:02:46;95910.84;;;27.42
20867;BMP280;10593;48.398;10.698;2023-06-10T08:05:12;95913.09;;;27.46
20867;BMP280;10593;48.398;10.698;2023-06-10T08:07:40;95911.72;;;27.52
20867;BMP280;10593;48.398;10.698;2023-06-10T08:10:06;95907.00;;;27.55
20867;BMP280;10593;48.398;10.698;2023-06-10T08:12:34;95909.22;;;27.60
20867;BMP280;10593;48.398;10.698;2023-06-10T08:15:00;95904.53;;;27.63
20867;BMP280;10593;48.398;10.698;2023-06-10T08:17:26;95905.06;;;27.67
20867;BMP280;10593;48.398;10.698;2023-06-10T08:19:52;95906.47;;;27.71
20867;BMP280;10593;48.398;10.698;2023-06-10T08:22:18;95908.97;;;27.72
20867;BMP280;10593;48.398;10.698;2023-06-10T08:24:43;95897.31;;;27.75
20867;BMP280;10593;48.398;10.698;2023-06-10T08:27:09;95906.50;;;27.80
20867;BMP280;10593;48.398;10.698;2023-06-10T08:29:36;95901.63;;;27.85
20867;BMP280;10593;48.398;10.698;2023-06-10T08:32:01;95899.53;;;27.89
20867;BMP280;10593;48.398;10.698;2023-06-10T08:34:27;95896.47;;;27.93
20867;BMP280;10593;48.398;10.698;2023-06-10T08:36:53;95904.97;;;27.97
20867;BMP280;10593;48.398;10.698;2023-06-10T08:39:21;95905.50;;;28.00
20867;BMP280;10593;48.398;10.698;2023-06-10T08:42:33;95905.25;;;28.03
20867;BMP280;10593;48.398;10.698;2023-06-10T08:45:01;95898.69;;;28.07
20867;BMP280;10593;48.398;10.698;2023-06-10T08:47:30;95910.63;;;28.11
20867;BMP280;10593;48.398;10.698;2023-06-10T08:50:03;95892.69;;;28.15
20867;BMP280;10593;48.398;10.698;2023-06-10T08:52:36;95905.50;;;28.19
20867;BMP280;10593;48.398;10.698;2023-06-10T08:55:18;95906.00;;;28.22
20867;BMP280;10593;48.398;10.698;2023-06-10T08:57:45;95898.94;;;28.23
20867;BMP280;10593;48.398;10.698;2023-06-10T09:00:14;95893.50;;;28.24
20867;BMP280;10593;48.398;10.698;2023-06-10T09:02:41;95900.31;;;28.27
20867;BMP280;10593;48.398;10.698;2023-06-10T09:05:08;95898.34;;;28.29
20867;BMP280;10593;48.398;10.698;2023-06-10T09:07:35;95895.56;;;28.30
20867;BMP280;10593;48.398;10.698;2023-06-10T09:10:03;95891.13;;;28.31
20867;BMP280;10593;48.398;10.698;2023-06-10T09:12:29;95885.84;;;28.31
20867;BMP280;10593;48.398;10.698;2023-06-10T09:14:55;95899.91;;;28.31
20867;BMP280;10593;48.398;10.698;2023-06-10T09:17:21;95900.59;;;28.33
20867;BMP280;10593;48.398;10.698;2023-06-10T09:19:47;95892.66;;;28.33
20867;BMP280;10593;48.398;10.698;2023-06-10T09:22:14;95896.16;;;28.34
20867;BMP280;10593;48.398;10.698;2023-06-10T09:24:41;95898.66;;;28.35
20867;BMP280;10593;48.398;10.698;2023-06-10T09:27:08;95904.66;;;28.37
20867;BMP280;10593;48.398;10.698;2023-06-10T09:29:51;95893.09;;;28.38
20867;BMP280;10593;48.398;10.698;2023-06-10T09:32:18;95890.44;;;28.38
20867;BMP280;10593;48.398;10.698;2023-06-10T09:34:45;95892.41;;;28.36
20867;BMP280;10593;48.398;10.698;2023-06-10T09:37:11;95898.94;;;28.32
20867;BMP280;10593;48.398;10.698;2023-06-10T09:39:40;95898.94;;;28.32
20867;BMP280;10593;48.398;10.698;2023-06-10T09:42:18;95900.59;;;28.33
20867;BMP280;10593;48.398;10.698;2023-06-10T09:44:51;95899.63;;;28.34
20867;BMP280;10593;48.398;10.698;2023-06-10T09:47:22;95898.66;;;28.35
20867;BMP280;10593;48.398;10.698;2023-06-10T09:49:49;95907.28;;;28.37
20867;BMP280;10593;48.398;10.698;2023-06-10T09:52:26;95901.72;;;28.40
20867;BMP280;10593;48.398;10.698;2023-06-10T09:54:53;95908.38;;;28.44
20867;BMP280;10593;48.398;10.698;2023-06-10T09:57:21;95902.78;;;28.47
20867;BMP280;10593;48.398;10.698;2023-06-10T09:59:47;95901.69;;;28.50
20867;BMP280;10593;48.398;10.698;2023-06-10T10:02:17;95900.56;;;28.52
20867;BMP280;10593;48.398;10.698;2023-06-10T10:04:44;95899.41;;;28.55
20867;BMP280;10593;48.398;10.698;2023-06-10T10:07:10;95891.22;;;28.58
20867;BMP280;10593;48.398;10.698;2023-06-10T10:09:41;95901.50;;;28.61
20867;BMP280;10593;48.398;10.698;2023-06-10T10:12:15;95887.84;;;28.65
20867;BMP280;10593;48.398;10.698;2023-06-10T10:14:46;95892.97;;;28.67
20867;BMP280;10593;48.398;10.698;2023-06-10T10:17:15;95897.47;;;28.66
20867;BMP280;10593;48.398;10.698;2023-06-10T10:19:53;95887.56;;;28.68
20867;BMP280;10593;48.398;10.698;2023-06-10T10:22:37;95893.66;;;28.69
20867;BMP280;10593;48.398;10.698;2023-06-10T10:25:10;95898.53;;;28.73
20867;BMP280;10593;48.398;10.698;2023-06-10T10:27:44;95901.84;;;28.75
20867;BMP280;10593;48.398;10.698;2023-06-10T10:30:17;95904.25;;;28.78
20867;BMP280;10593;48.398;10.698;2023-06-10T10:33:00;95900.59;;;28.79
20867;BMP280;10593;48.398;10.698;2023-06-10T10:35:30;95899.63;;;28.80
20867;BMP280;10593;48.398;10.698;2023-06-10T10:37:58;95894.34;;;28.80
20867;BMP280;10593;48.398;10.698;2023-06-10T10:40:25;95896.00;;;28.81
20867;BMP280;10593;48.398;10.698;2023-06-10T10:42:53;95883.44;;;28.83
20867;BMP280;10593;48.398;10.698;2023-06-10T10:45:21;95874.53;;;28.84
20867;BMP280;10593;48.398;10.698;2023-06-10T10:47:53;95877.56;;;28.89
20867;BMP280;10593;48.398;10.698;2023-06-10T10:50:20;95884.41;;;28.92
20867;BMP280;10593;48.398;10.698;2023-06-10T10:53:06;95885.94;;;28.94
20867;BMP280;10593;48.398;10.698;2023-06-10T10:55:33;95888.28;;;28.97
20867;BMP280;10593;48.398;10.698;2023-06-10T10:58:04;95885.50;;;28.99
20867;BMP280;10593;48.398;10.698;2023-06-10T11:00:42;95888.97;;;28.99
20867;BMP280;10593;48.398;10.698;2023-06-10T11:03:14;95881.88;;;29.00
20867;BMP280;10593;48.398;10.698;2023-06-10T11:05:45;95881.03;;;28.99
20867;BMP280;10593;48.398;10.698;2023-06-10T11:11:00;95873.63;;;29.03
20867;BMP280;10593;48.398;10.698;2023-06-10T11:13:27;95870.84;;;29.04
20867;BMP280;10593;48.398;10.698;2023-06-10T11:15:57;95868.88;;;29.06
20867;BMP280;10593;48.398;10.698;2023-06-10T11:18:34;95868.72;;;29.08
20867;BMP280;10593;48.398;10.698;2023-06-10T11:21:05;95873.03;;;29.09
20867;BMP280;10593;48.398;10.698;2023-06-10T11:23:41;95878.06;;;29.12
20867;BMP280;10593;48.398;10.698;2023-06-10T11:31:24;95879.72;;;29.13
20867;BMP280;10593;48.398;10.698;2023-06-10T11:33:56;95877.59;;;29.16
20867;BMP280;10593;48.398;10.698;2023-06-10T11:36:23;95872.16;;;29.18
20867;BMP280;10593;48.398;10.698;2023-06-10T11:39:02;95872.53;;;29.23
20867;BMP280;10593;48.398;10.698;2023-06-10T11:41:30;95874.19;;;29.24
20867;BMP280;10593;48.398;10.698;2023-06-10T11:44:01;95877.53;;;29.26
20867;BMP280;10593;48.398;10.698;2023-06-10T11:46:27;95879.03;;;29.28
20867;BMP280;10593;48.398;10.698;2023-06-10T11:48:58;95872.63;;;29.31
20867;BMP280;10593;48.398;10.698;2023-06-10T11:51:33;95877.06;;;29.30
20867;BMP280;10593;48.398;10.698;2023-06-10T11:53:59;95870.13;;;29.29
20867;BMP280;10593;48.398;10.698;2023-06-10T11:56:29;95873.47;;;29.31
20867;BMP280;10593;48.398;10.698;2023-06-10T11:59:00;95868.84;;;29.33
20867;BMP280;10593;48.398;10.698;2023-06-10T12:01:31;95869.53;;;29.35
20867;BMP280;10593;48.398;10.698;2023-06-10T12:04:16;95869.22;;;29.38
20867;BMP280;10593;48.398;10.698;2023-06-10T12:06:49;95880.50;;;29.40
20867;BMP280;10593;48.398;10.698;2023-06-10T12:09:25;95873.41;;;29.41
20867;BMP280;10593;48.398;10.698;2023-06-10T12:12:02;95880.50;;;29.40
20867;BMP280;10593;48.398;10.698;2023-06-10T12:17:37;95873.31;;;29.33
20867;BMP280;10593;48.398;10.698;2023-06-10T12:20:25;95877.06;;;29.30
20867;BMP280;10593;48.398;10.698;2023-06-10T12:22:51;95867.63;;;29.28
20867;BMP280;10593;48.398;10.698;2023-06-10T12:25:16;95867.63;;;29.28
20867;BMP280;10593;48.398;10.698;2023-06-10T12:27:53;95867.47;;;29.29
20867;BMP280;10593;48.398;10.698;2023-06-10T12:30:21;95860.25;;;29.31
20867;BMP280;10593;48.398;10.698;2023-06-10T12:32:47;95860.91;;;29.33
20867;BMP280;10593;48.398;10.698;2023-06-10T12:35:17;95867.56;;;29.37
20867;BMP280;10593;48.398;10.698;2023-06-10T12:37:56;95867.44;;;29.39
20867;BMP280;10593;48.398;10.698;2023-06-10T12:40:27;95869.09;;;29.40
20867;BMP280;10593;48.398;10.698;2023-06-10T12:42:55;95855.69;;;29.41
20867;BMP280;10593;48.398;10.698;2023-06-10T12:45:35;95873.94;;;29.44
20867;BMP280;10593;48.398;10.698;2023-06-10T12:48:09;95856.22;;;29.45
20867;BMP280;10593;48.398;10.698;2023-06-10T12:50:39;95849.13;;;29.45
20867;BMP280;10593;48.398;10.698;2023-06-10T12:53:06;95855.13;;;29.47
20867;BMP280;10593;48.398;10.698;2023-06-10T12:55:33;95854.97;;;29.49
20867;BMP280;10593;48.398;10.698;2023-06-10T12:58:00;95856.78;;;29.48
20867;BMP280;10593;48.398;10.698;2023-06-10T13:00:27;95857.78;;;29.47
20867;BMP280;10593;48.398;10.698;2023-06-10T13:02:56;95853.16;;;29.49
20867;BMP280;10593;48.398;10.698;2023-06-10T13:05:22;95843.22;;;29.51
20867;BMP280;10593;48.398;10.698;2023-06-10T13:07:48;95844.91;;;29.52
20867;BMP280;10593;48.398;10.698;2023-06-10T13:10:16;95842.94;;;29.54
20867;BMP280;10593;48.398;10.698;2023-06-10T13:12:43;95846.25;;;29.56
20867;BMP280;10593;48.398;10.698;2023-06-10T13:15:10;95849.59;;;29.58
20867;BMP280;10593;48.398;10.698;2023-06-10T13:17:37;95850.44;;;29.59
20867;BMP280;10593;48.398;10.698;2023-06-10T13:20:03;95841.50;;;29.60
20867;BMP280;10593;48.398;10.698;2023-06-10T13:22:31;95848.44;;;29.61
20867;BMP280;10593;48.398;10.698;2023-06-10T13:24:59;95850.28;;;29.60
20867;BMP280;10593;48.398;10.698;2023-06-10T13:27:25;95843.16;;;29.61
20867;BMP280;10593;48.398;10.698;2023-06-10T13:29:50;95840.69;;;29.59
20867;BMP280;10593;48.398;10.698;2023-06-10T13:32:16;95845.81;;;29.61
20867;BMP280;10593;48.398;10.698;2023-06-10T13:34:42;95839.53;;;29.62
20867;BMP280;10593;48.398;10.698;2023-06-10T13:37:07;95843.00;;;29.62
20867;BMP280;10593;48.398;10.698;2023-06-10T13:39:33;95828.63;;;29.65
20867;BMP280;10593;48.398;10.698;2023-06-10T13:41:59;95836.41;;;29.66
20867;BMP280;10593;48.398;10.698;2023-06-10T13:44:24;95833.47;;;29.69
20867;BMP280;10593;48.398;10.698;2023-06-10T13:46:50;95834.97;;;29.72
20867;BMP280;10593;48.398;10.698;2023-06-10T13:49:16;95830.34;;;29.74
20867;BMP280;10593;48.398;10.698;2023-06-10T13:51:42;95838.84;;;29.77
20867;BMP280;10593;48.398;10.698;2023-06-10T13:54:07;95828.22;;;29.77
20867;BMP280;10593;48.398;10.698;2023-06-10T13:56:33;95831.56;;;29.79
20867;BMP280;10593;48.398;10.698;2023-06-10T13:59:03;95822.63;;;29.80
20867;BMP280;10593;48.398;10.698;2023-06-10T14:01:29;95821.50;;;29.83
20867;BMP280;10593;48.398;10.698;2023-06-10T14:03:55;95819.50;;;29.85
20867;BMP280;10593;48.398;10.698;2023-06-10T14:06:21;95821.19;;;29.86
20867;BMP280;10593;48.398;10.698;2023-06-10T14:08:46;95820.03;;;29.88
20867;BMP280;10593;48.398;10.698;2023-06-10T14:11:12;95831.47;;;29.89
20867;BMP280;10593;48.398;10.698;2023-06-10T14:13:38;95826.03;;;29.90
20867;BMP280;10593;48.398;10.698;2023-06-10T14:16:06;95819.72;;;29.91